Aviation Digital Data Service (ADDS)

Output produced by METARs form (0033 UTC 19 August 2019)
found at http://www.aviationweather.gov/metar/data/
 
METAR text: ZSHC 190000Z 22002MPS 200V260 9999 SCT020 26/22 Q1008 NOSIG
Conditions at: ZSHC (HANGZHOU/JIANQIA, CN) observed 0000 UTC 19 August 2019
Temperature: 26.0°C (79°F)
Dewpoint: 22.0°C (72°F) [RH = 79%]
Pressure (altimeter): 29.76 inches Hg (1008.0 mb)
Winds: from the SW (220 degrees) at 5 MPH (4 knots; 2.1 m/s)
Visibility: 6 or more miles (10+ km)
Ceiling: at least 12,000 feet AGL
Clouds: scattered clouds at 2000 feet AGL
Weather: no significant weather observed at this time

METAR text: ZSHC 182330Z 24002MPS 9999 SCT020 26/22 Q1008 NOSIG
Conditions at: ZSHC (HANGZHOU/JIANQIA, CN) observed 2330 UTC 18 August 2019
Temperature: 26.0°C (79°F)
Dewpoint: 22.0°C (72°F) [RH = 79%]
Pressure (altimeter): 29.76 inches Hg (1008.0 mb)
Winds: from the WSW (240 degrees) at 5 MPH (4 knots; 2.1 m/s)
Visibility: 6 or more miles (10+ km)
Ceiling: at least 12,000 feet AGL
Clouds: scattered clouds at 2000 feet AGL
Weather: no significant weather observed at this time

METAR text: ZSHC 182300Z 24002MPS 9999 SCT020 25/22 Q1008 NOSIG
Conditions at: ZSHC (HANGZHOU/JIANQIA, CN) observed 2300 UTC 18 August 2019
Temperature: 25.0°C (77°F)
Dewpoint: 22.0°C (72°F) [RH = 83%]
Pressure (altimeter): 29.76 inches Hg (1008.0 mb)
Winds: from the WSW (240 degrees) at 5 MPH (4 knots; 2.1 m/s)
Visibility: 6 or more miles (10+ km)
Ceiling: at least 12,000 feet AGL
Clouds: scattered clouds at 2000 feet AGL
Weather: no significant weather observed at this time

METAR text: ZSHC 182230Z 25002MPS 9999 SCT020 25/22 Q1008 NOSIG
Conditions at: ZSHC (HANGZHOU/JIANQIA, CN) observed 2230 UTC 18 August 2019
Temperature: 25.0°C (77°F)
Dewpoint: 22.0°C (72°F) [RH = 83%]
Pressure (altimeter): 29.76 inches Hg (1008.0 mb)
Winds: from the WSW (250 degrees) at 5 MPH (4 knots; 2.1 m/s)
Visibility: 6 or more miles (10+ km)
Ceiling: at least 12,000 feet AGL
Clouds: scattered clouds at 2000 feet AGL
Weather: no significant weather observed at this time

METAR text: ZSHC 182200Z 23002MPS 9999 SCT020 25/22 Q1008 NOSIG
Conditions at: ZSHC (HANGZHOU/JIANQIA, CN) observed 2200 UTC 18 August 2019
Temperature: 25.0°C (77°F)
Dewpoint: 22.0°C (72°F) [RH = 83%]
Pressure (altimeter): 29.76 inches Hg (1008.0 mb)
Winds: from the SW (230 degrees) at 5 MPH (4 knots; 2.1 m/s)
Visibility: 6 or more miles (10+ km)
Ceiling: at least 12,000 feet AGL
Clouds: scattered clouds at 2000 feet AGL
Weather: no significant weather observed at this time

METAR text: ZSHC 182130Z 22001MPS 9999 SCT020 24/22 Q1007 NOSIG
Conditions at: ZSHC (HANGZHOU/JIANQIA, CN) observed 2130 UTC 18 August 2019
Temperature: 24.0°C (75°F)
Dewpoint: 22.0°C (72°F) [RH = 89%]
Pressure (altimeter): 29.73 inches Hg (1007.0 mb)
Winds: from the SW (220 degrees) at 2 MPH (2 knots; 1.0 m/s)
Visibility: 6 or more miles (10+ km)
Ceiling: at least 12,000 feet AGL
Clouds: scattered clouds at 2000 feet AGL
Weather: no significant weather observed at this time

METAR text: ZSHC 182100Z 22002MPS 9999 SCT020 24/22 Q1007 NOSIG
Conditions at: ZSHC (HANGZHOU/JIANQIA, CN) observed 2100 UTC 18 August 2019
Temperature: 24.0°C (75°F)
Dewpoint: 22.0°C (72°F) [RH = 89%]
Pressure (altimeter): 29.73 inches Hg (1007.0 mb)
Winds: from the SW (220 degrees) at 5 MPH (4 knots; 2.1 m/s)
Visibility: 6 or more miles (10+ km)
Ceiling: at least 12,000 feet AGL
Clouds: scattered clouds at 2000 feet AGL
Weather: no significant weather observed at this time

METAR text: ZSHC 182030Z VRB01MPS 9999 SCT020 24/22 Q1007 NOSIG
Conditions at: ZSHC (HANGZHOU/JIANQIA, CN) observed 2030 UTC 18 August 2019
Temperature: 24.0°C (75°F)
Dewpoint: 22.0°C (72°F) [RH = 89%]
Pressure (altimeter): 29.73 inches Hg (1007.0 mb)
Winds: variable direction winds at 2 MPH (2 knots; 1.0 m/s)
Visibility: 6 or more miles (10+ km)
Ceiling: at least 12,000 feet AGL
Clouds: scattered clouds at 2000 feet AGL
Weather: no significant weather observed at this time

METAR text: ZSHC 182000Z 25002MPS 9999 SCT020 24/22 Q1007 NOSIG
Conditions at: ZSHC (HANGZHOU/JIANQIA, CN) observed 2000 UTC 18 August 2019
Temperature: 24.0°C (75°F)
Dewpoint: 22.0°C (72°F) [RH = 89%]
Pressure (altimeter): 29.73 inches Hg (1007.0 mb)
Winds: from the WSW (250 degrees) at 5 MPH (4 knots; 2.1 m/s)
Visibility: 6 or more miles (10+ km)
Ceiling: at least 12,000 feet AGL
Clouds: scattered clouds at 2000 feet AGL
Weather: no significant weather observed at this time

METAR text: ZSHC 181930Z 28002MPS 9999 SCT020 24/22 Q1007 NOSIG
Conditions at: ZSHC (HANGZHOU/JIANQIA, CN) observed 1930 UTC 18 August 2019
Temperature: 24.0°C (75°F)
Dewpoint: 22.0°C (72°F) [RH = 89%]
Pressure (altimeter): 29.73 inches Hg (1007.0 mb)
Winds: from the W (280 degrees) at 5 MPH (4 knots; 2.1 m/s)
Visibility: 6 or more miles (10+ km)
Ceiling: at least 12,000 feet AGL
Clouds: scattered clouds at 2000 feet AGL
Weather: no significant weather observed at this time

METAR text: ZSHC 181900Z 25001MPS 9999 SCT020 24/22 Q1006 NOSIG
Conditions at: ZSHC (HANGZHOU/JIANQIA, CN) observed 1900 UTC 18 August 2019
Temperature: 24.0°C (75°F)
Dewpoint: 22.0°C (72°F) [RH = 89%]
Pressure (altimeter): 29.70 inches Hg (1006.0 mb)
Winds: from the WSW (250 degrees) at 2 MPH (2 knots; 1.0 m/s)
Visibility: 6 or more miles (10+ km)
Ceiling: at least 12,000 feet AGL
Clouds: scattered clouds at 2000 feet AGL
Weather: no significant weather observed at this time

METAR text: ZSHC 181830Z 22001MPS 9999 SCT020 25/22 Q1007 NOSIG
Conditions at: ZSHC (HANGZHOU/JIANQIA, CN) observed 1830 UTC 18 August 2019
Temperature: 25.0°C (77°F)
Dewpoint: 22.0°C (72°F) [RH = 83%]
Pressure (altimeter): 29.73 inches Hg (1007.0 mb)
Winds: from the SW (220 degrees) at 2 MPH (2 knots; 1.0 m/s)
Visibility: 6 or more miles (10+ km)
Ceiling: at least 12,000 feet AGL
Clouds: scattered clouds at 2000 feet AGL
Weather: no significant weather observed at this time

METAR text: ZSHC 181800Z 00000MPS 9999 SCT020 24/22 Q1007 NOSIG
Conditions at: ZSHC (HANGZHOU/JIANQIA, CN) observed 1800 UTC 18 August 2019
Temperature: 24.0°C (75°F)
Dewpoint: 22.0°C (72°F) [RH = 89%]
Pressure (altimeter): 29.73 inches Hg (1007.0 mb)
Winds: calm
Visibility: 6 or more miles (10+ km)
Ceiling: at least 12,000 feet AGL
Clouds: scattered clouds at 2000 feet AGL
Weather: no significant weather observed at this time

METAR text: ZSHC 181730Z VRB01MPS 9999 FEW023 23/22 Q1007 NOSIG
Conditions at: ZSHC (HANGZHOU/JIANQIA, CN) observed 1730 UTC 18 August 2019
Temperature: 23.0°C (73°F)
Dewpoint: 22.0°C (72°F) [RH = 94%]
Pressure (altimeter): 29.73 inches Hg (1007.0 mb)
Winds: variable direction winds at 2 MPH (2 knots; 1.0 m/s)
Visibility: 6 or more miles (10+ km)
Ceiling: at least 12,000 feet AGL
Clouds: few clouds at 2300 feet AGL
Weather: no significant weather observed at this time

METAR text: ZSHC 181700Z 00000MPS 9999 FEW023 24/21 Q1007 NOSIG
Conditions at: ZSHC (HANGZHOU/JIANQIA, CN) observed 1700 UTC 18 August 2019
Temperature: 24.0°C (75°F)
Dewpoint: 21.0°C (70°F) [RH = 83%]
Pressure (altimeter): 29.73 inches Hg (1007.0 mb)
Winds: calm
Visibility: 6 or more miles (10+ km)
Ceiling: at least 12,000 feet AGL
Clouds: few clouds at 2300 feet AGL
Weather: no significant weather observed at this time

METAR text: ZSHC 181630Z 00000MPS CAVOK 23/21 Q1007 NOSIG
Conditions at: ZSHC (HANGZHOU/JIANQIA, CN) observed 1630 UTC 18 August 2019
Temperature: 23.0°C (73°F)
Dewpoint: 21.0°C (70°F) [RH = 89%]
Pressure (altimeter): 29.73 inches Hg (1007.0 mb)
Winds: calm
Visibility: 6 or more miles (10+ km)
Ceiling: ceiling and visibility are OK
Clouds: unknown
Weather: no significant weather observed at this time

METAR text: ZSHC 181600Z 00000MPS CAVOK 24/21 Q1007 NOSIG
Conditions at: ZSHC (HANGZHOU/JIANQIA, CN) observed 1600 UTC 18 August 2019
Temperature: 24.0°C (75°F)
Dewpoint: 21.0°C (70°F) [RH = 83%]
Pressure (altimeter): 29.73 inches Hg (1007.0 mb)
Winds: calm
Visibility: 6 or more miles (10+ km)
Ceiling: ceiling and visibility are OK
Clouds: unknown
Weather: no significant weather observed at this time

METAR text: ZSHC 181530Z 00000MPS CAVOK 24/21 Q1007 NOSIG
Conditions at: ZSHC (HANGZHOU/JIANQIA, CN) observed 1530 UTC 18 August 2019
Temperature: 24.0°C (75°F)
Dewpoint: 21.0°C (70°F) [RH = 83%]
Pressure (altimeter): 29.73 inches Hg (1007.0 mb)
Winds: calm
Visibility: 6 or more miles (10+ km)
Ceiling: ceiling and visibility are OK
Clouds: unknown
Weather: no significant weather observed at this time

METAR text: ZSHC 181500Z 00000MPS CAVOK 24/20 Q1008 NOSIG
Conditions at: ZSHC (HANGZHOU/JIANQIA, CN) observed 1500 UTC 18 August 2019
Temperature: 24.0°C (75°F)
Dewpoint: 20.0°C (68°F) [RH = 78%]
Pressure (altimeter): 29.76 inches Hg (1008.0 mb)
Winds: calm
Visibility: 6 or more miles (10+ km)
Ceiling: ceiling and visibility are OK
Clouds: unknown
Weather: no significant weather observed at this time

METAR text: ZSHC 181430Z 32002MPS 270V350 9999 FEW040 24/20 Q1007 NOSIG
Conditions at: ZSHC (HANGZHOU/JIANQIA, CN) observed 1430 UTC 18 August 2019
Temperature: 24.0°C (75°F)
Dewpoint: 20.0°C (68°F) [RH = 78%]
Pressure (altimeter): 29.73 inches Hg (1007.0 mb)
Winds: from the NW (320 degrees) at 5 MPH (4 knots; 2.1 m/s)
Visibility: 6 or more miles (10+ km)
Ceiling: at least 12,000 feet AGL
Clouds: few clouds at 4000 feet AGL
Weather: no significant weather observed at this time

METAR text: ZSHC 181400Z 29004MPS 9999 SCT026 24/21 Q1007 NOSIG
Conditions at: ZSHC (HANGZHOU/JIANQIA, CN) observed 1400 UTC 18 August 2019
Temperature: 24.0°C (75°F)
Dewpoint: 21.0°C (70°F) [RH = 83%]
Pressure (altimeter): 29.73 inches Hg (1007.0 mb)
Winds: from the WNW (290 degrees) at 9 MPH (8 knots; 4.1 m/s)
Visibility: 6 or more miles (10+ km)
Ceiling: at least 12,000 feet AGL
Clouds: scattered clouds at 2600 feet AGL
Weather: no significant weather observed at this time

METAR text: ZSHC 181330Z 28004MPS 9999 SCT026 24/21 Q1007 NOSIG
Conditions at: ZSHC (HANGZHOU/JIANQIA, CN) observed 1330 UTC 18 August 2019
Temperature: 24.0°C (75°F)
Dewpoint: 21.0°C (70°F) [RH = 83%]
Pressure (altimeter): 29.73 inches Hg (1007.0 mb)
Winds: from the W (280 degrees) at 9 MPH (8 knots; 4.1 m/s)
Visibility: 6 or more miles (10+ km)
Ceiling: at least 12,000 feet AGL
Clouds: scattered clouds at 2600 feet AGL
Weather: no significant weather observed at this time

METAR text: ZSHC 181300Z 26003MPS 9999 FEW011 SCT026 24/20 Q1007 NOSIG
Conditions at: ZSHC (HANGZHOU/JIANQIA, CN) observed 1300 UTC 18 August 2019
Temperature: 24.0°C (75°F)
Dewpoint: 20.0°C (68°F) [RH = 78%]
Pressure (altimeter): 29.73 inches Hg (1007.0 mb)
Winds: from the W (260 degrees) at 7 MPH (6 knots; 3.1 m/s)
Visibility: 6 or more miles (10+ km)
Ceiling: at least 12,000 feet AGL
Clouds: few clouds at 1100 feet AGL
scattered clouds at 2600 feet AGL
Weather: no significant weather observed at this time

METAR text: ZSHC 181230Z 22003MPS 9999 -SHRA FEW011 SCT026 25/20 Q1007 NOSIG
Conditions at: ZSHC (HANGZHOU/JIANQIA, CN) observed 1230 UTC 18 August 2019
Temperature: 25.0°C (77°F)
Dewpoint: 20.0°C (68°F) [RH = 74%]
Pressure (altimeter): 29.73 inches Hg (1007.0 mb)
Winds: from the SW (220 degrees) at 7 MPH (6 knots; 3.1 m/s)
Visibility: 6 or more miles (10+ km)
Ceiling: at least 12,000 feet AGL
Clouds: few clouds at 1100 feet AGL
scattered clouds at 2600 feet AGL
Weather: -SHRA  (light rain showers)

METAR text: ZSHC 181200Z VRB01MPS 9999 -SHRA FEW011 SCT026 25/20 Q1007 RETS NOSIG
Conditions at: ZSHC (HANGZHOU/JIANQIA, CN) observed 1200 UTC 18 August 2019
Temperature: 25.0°C (77°F)
Dewpoint: 20.0°C (68°F) [RH = 74%]
Pressure (altimeter): 29.73 inches Hg (1007.0 mb)
Winds: variable direction winds at 2 MPH (2 knots; 1.0 m/s)
Visibility: 6 or more miles (10+ km)
Ceiling: at least 12,000 feet AGL
Clouds: few clouds at 1100 feet AGL
scattered clouds at 2600 feet AGL
Weather: -SHRA  (light rain showers)

METAR text: ZSHC 181130Z 16004MPS 120V200 9999 -TSRA FEW011 BKN026 FEW033CB 25/20 Q1006 NOSIG
Conditions at: ZSHC (HANGZHOU/JIANQIA, CN) observed 1130 UTC 18 August 2019
Temperature: 25.0°C (77°F)
Dewpoint: 20.0°C (68°F) [RH = 74%]
Pressure (altimeter): 29.70 inches Hg (1006.0 mb)
Winds: from the SSE (160 degrees) at 9 MPH (8 knots; 4.1 m/s)
Visibility: 6 or more miles (10+ km)
Ceiling: 2600 feet AGL
Clouds: few clouds at 1100 feet AGL
broken clouds at 2600 feet AGL
few clouds at 3300 feet AGL
Weather: -TSRA  (light rain associated with thunderstorm(s))

METAR text: ZSHC 181100Z 15006MPS 130V190 8000 -TSRA SCT011 BKN026 FEW033CB 23/21 Q1007 RESHRA BECMG TL1140 -SHRA
Conditions at: ZSHC (HANGZHOU/JIANQIA, CN) observed 1100 UTC 18 August 2019
Temperature: 23.0°C (73°F)
Dewpoint: 21.0°C (70°F) [RH = 89%]
Pressure (altimeter): 29.73 inches Hg (1007.0 mb)
Winds: from the SSE (150 degrees) at 14 MPH (12 knots; 6.2 m/s)
Visibility: 5 miles ( 8 km)
Ceiling: 2600 feet AGL
Clouds: scattered clouds at 1100 feet AGL
broken clouds at 2600 feet AGL
few clouds at 3300 feet AGL
Weather: -TSRA  (light rain associated with thunderstorm(s))

METAR text: ZSHC 181030Z 14003MPS 090V240 5000 TSRA BR SCT011 BKN026 FEW033CB 22/21 Q1007 BECMG TL1110 -TSRA
Conditions at: ZSHC (HANGZHOU/JIANQIA, CN) observed 1030 UTC 18 August 2019
Temperature: 22.0°C (72°F)
Dewpoint: 21.0°C (70°F) [RH = 94%]
Pressure (altimeter): 29.73 inches Hg (1007.0 mb)
Winds: from the SE (140 degrees) at 7 MPH (6 knots; 3.1 m/s)
Visibility: 3 miles ( 5 km)
Ceiling: 2600 feet AGL
Clouds: scattered clouds at 1100 feet AGL
broken clouds at 2600 feet AGL
few clouds at 3300 feet AGL
Weather: TSRA BR  (rain associated with thunderstorm(s), mist)

METAR text: ZSHC 181000Z 04010G20MPS 360V070 8000 -SHRA FEW011 BKN026 FEW033CB 24/21 Q1006 WS ALL RWY BECMG TL1010 TSRA
Conditions at: ZSHC (HANGZHOU/JIANQIA, CN) observed 1000 UTC 18 August 2019
Temperature: 24.0°C (75°F)
Dewpoint: 21.0°C (70°F) [RH = 83%]
Pressure (altimeter): 29.70 inches Hg (1006.0 mb)
Winds: from the NE (40 degrees) at 22 MPH (19 knots; 9.8 m/s)
gusting to 45 MPH (39 knots; 20.1 m/s)
Visibility: 5 miles ( 8 km)
Ceiling: 2600 feet AGL
Clouds: few clouds at 1100 feet AGL
broken clouds at 2600 feet AGL
few clouds at 3300 feet AGL
Weather: -SHRA  (light rain showers)

METAR text: ZSHC 180930Z 10005MPS 070V140 8000 FEW026 FEW033CB 32/21 Q1004 NOSIG
Conditions at: ZSHC (HANGZHOU/JIANQIA, CN) observed 0930 UTC 18 August 2019
Temperature: 32.0°C (90°F)
Dewpoint: 21.0°C (70°F) [RH = 52%]
Pressure (altimeter): 29.65 inches Hg (1004.0 mb)
Winds: from the E (100 degrees) at 12 MPH (10 knots; 5.1 m/s)
Visibility: 5 miles ( 8 km)
Ceiling: at least 12,000 feet AGL
Clouds: few clouds at 2600 feet AGL
few clouds at 3300 feet AGL
Weather: no significant weather observed at this time

METAR text: ZSHC 180900Z 12005MPS 090V150 6000 FEW026 FEW033CB 32/22 Q1003 BECMG TL1000 TSRA
Conditions at: ZSHC (HANGZHOU/JIANQIA, CN) observed 0900 UTC 18 August 2019
Temperature: 32.0°C (90°F)
Dewpoint: 22.0°C (72°F) [RH = 56%]
Pressure (altimeter): 29.62 inches Hg (1003.0 mb)
Winds: from the ESE (120 degrees) at 12 MPH (10 knots; 5.1 m/s)
Visibility: 4 miles ( 6 km)
Ceiling: at least 12,000 feet AGL
Clouds: few clouds at 2600 feet AGL
few clouds at 3300 feet AGL
Weather: no significant weather observed at this time

METAR text: ZSHC 180830Z 09004MPS 6000 SCT026 33/25 Q1003 NOSIG
Conditions at: ZSHC (HANGZHOU/JIANQIA, CN) observed 0830 UTC 18 August 2019
Temperature: 33.0°C (91°F)
Dewpoint: 25.0°C (77°F) [RH = 63%]
Pressure (altimeter): 29.62 inches Hg (1003.0 mb)
Winds: from the E (90 degrees) at 9 MPH (8 knots; 4.1 m/s)
Visibility: 4 miles ( 6 km)
Ceiling: at least 12,000 feet AGL
Clouds: scattered clouds at 2600 feet AGL
Weather: no significant weather observed at this time

METAR text: ZSHC 180800Z 08003MPS 6000 SCT026 34/25 Q1004 NOSIG
Conditions at: ZSHC (HANGZHOU/JIANQIA, CN) observed 0800 UTC 18 August 2019
Temperature: 34.0°C (93°F)
Dewpoint: 25.0°C (77°F) [RH = 60%]
Pressure (altimeter): 29.65 inches Hg (1004.0 mb)
Winds: from the E (80 degrees) at 7 MPH (6 knots; 3.1 m/s)
Visibility: 4 miles ( 6 km)
Ceiling: at least 12,000 feet AGL
Clouds: scattered clouds at 2600 feet AGL
Weather: no significant weather observed at this time

METAR text: ZSHC 180730Z 08002MPS 030V130 6000 SCT026 35/25 Q1003 NOSIG
Conditions at: ZSHC (HANGZHOU/JIANQIA, CN) observed 0730 UTC 18 August 2019
Temperature: 35.0°C (95°F)
Dewpoint: 25.0°C (77°F) [RH = 56%]
Pressure (altimeter): 29.62 inches Hg (1003.0 mb)
Winds: from the E (80 degrees) at 5 MPH (4 knots; 2.1 m/s)
Visibility: 4 miles ( 6 km)
Ceiling: at least 12,000 feet AGL
Clouds: scattered clouds at 2600 feet AGL
Weather: no significant weather observed at this time

METAR text: ZSHC 180700Z 05003MPS 340V080 6000 SCT026 35/25 Q1004 NOSIG
Conditions at: ZSHC (HANGZHOU/JIANQIA, CN) observed 0700 UTC 18 August 2019
Temperature: 35.0°C (95°F)
Dewpoint: 25.0°C (77°F) [RH = 56%]
Pressure (altimeter): 29.65 inches Hg (1004.0 mb)
Winds: from the NE (50 degrees) at 7 MPH (6 knots; 3.1 m/s)
Visibility: 4 miles ( 6 km)
Ceiling: at least 12,000 feet AGL
Clouds: scattered clouds at 2600 feet AGL
Weather: no significant weather observed at this time

METAR text: ZSHC 180630Z 02003MPS 350V080 6000 SCT026 34/25 Q1004 NOSIG
Conditions at: ZSHC (HANGZHOU/JIANQIA, CN) observed 0630 UTC 18 August 2019
Temperature: 34.0°C (93°F)
Dewpoint: 25.0°C (77°F) [RH = 60%]
Pressure (altimeter): 29.65 inches Hg (1004.0 mb)
Winds: from the NNE (20 degrees) at 7 MPH (6 knots; 3.1 m/s)
Visibility: 4 miles ( 6 km)
Ceiling: at least 12,000 feet AGL
Clouds: scattered clouds at 2600 feet AGL
Weather: no significant weather observed at this time

METAR text: ZSHC 180600Z 04004MPS 270V070 5000 HZ SCT026 34/26 Q1005 NOSIG
Conditions at: ZSHC (HANGZHOU/JIANQIA, CN) observed 0600 UTC 18 August 2019
Temperature: 34.0°C (93°F)
Dewpoint: 26.0°C (79°F) [RH = 63%]
Pressure (altimeter): 29.68 inches Hg (1005.0 mb)
Winds: from the NE (40 degrees) at 9 MPH (8 knots; 4.1 m/s)
Visibility: 3 miles ( 5 km)
Ceiling: at least 12,000 feet AGL
Clouds: scattered clouds at 2600 feet AGL
Weather: HZ  (haze)

METAR text: ZSHC 180530Z 06004MPS 010V090 5000 HZ SCT026 34/26 Q1005 NOSIG
Conditions at: ZSHC (HANGZHOU/JIANQIA, CN) observed 0530 UTC 18 August 2019
Temperature: 34.0°C (93°F)
Dewpoint: 26.0°C (79°F) [RH = 63%]
Pressure (altimeter): 29.68 inches Hg (1005.0 mb)
Winds: from the ENE (60 degrees) at 9 MPH (8 knots; 4.1 m/s)
Visibility: 3 miles ( 5 km)
Ceiling: at least 12,000 feet AGL
Clouds: scattered clouds at 2600 feet AGL
Weather: HZ  (haze)

METAR text: ZSHC 180500Z 35005MPS 330V040 5000 HZ SCT026 33/25 Q1005 NOSIG
Conditions at: ZSHC (HANGZHOU/JIANQIA, CN) observed 0500 UTC 18 August 2019
Temperature: 33.0°C (91°F)
Dewpoint: 25.0°C (77°F) [RH = 63%]
Pressure (altimeter): 29.68 inches Hg (1005.0 mb)
Winds: from the N (350 degrees) at 12 MPH (10 knots; 5.1 m/s)
Visibility: 3 miles ( 5 km)
Ceiling: at least 12,000 feet AGL
Clouds: scattered clouds at 2600 feet AGL
Weather: HZ  (haze)

METAR text: ZSHC 180430Z 09002MPS 050V140 5000 HZ FEW026 34/24 Q1005 NOSIG
Conditions at: ZSHC (HANGZHOU/JIANQIA, CN) observed 0430 UTC 18 August 2019
Temperature: 34.0°C (93°F)
Dewpoint: 24.0°C (75°F) [RH = 56%]
Pressure (altimeter): 29.68 inches Hg (1005.0 mb)
Winds: from the E (90 degrees) at 5 MPH (4 knots; 2.1 m/s)
Visibility: 3 miles ( 5 km)
Ceiling: at least 12,000 feet AGL
Clouds: few clouds at 2600 feet AGL
Weather: HZ  (haze)

METAR text: ZSHC 180400Z 10002MPS 040V170 5000 HZ FEW020 34/26 Q1005 NOSIG
Conditions at: ZSHC (HANGZHOU/JIANQIA, CN) observed 0400 UTC 18 August 2019
Temperature: 34.0°C (93°F)
Dewpoint: 26.0°C (79°F) [RH = 63%]
Pressure (altimeter): 29.68 inches Hg (1005.0 mb)
Winds: from the E (100 degrees) at 5 MPH (4 knots; 2.1 m/s)
Visibility: 3 miles ( 5 km)
Ceiling: at least 12,000 feet AGL
Clouds: few clouds at 2000 feet AGL
Weather: HZ  (haze)

METAR text: ZSHC 180330Z 09002MPS 030V200 4000 HZ SCT020 33/25 Q1006 NOSIG
Conditions at: ZSHC (HANGZHOU/JIANQIA, CN) observed 0330 UTC 18 August 2019
Temperature: 33.0°C (91°F)
Dewpoint: 25.0°C (77°F) [RH = 63%]
Pressure (altimeter): 29.70 inches Hg (1006.0 mb)
Winds: from the E (90 degrees) at 5 MPH (4 knots; 2.1 m/s)
Visibility: 2.49 miles (4.01 km)
Ceiling: at least 12,000 feet AGL
Clouds: scattered clouds at 2000 feet AGL
Weather: HZ  (haze)

METAR text: ZSHC 180300Z 01003MPS 310V090 4000 HZ SCT017 32/25 Q1006 NOSIG
Conditions at: ZSHC (HANGZHOU/JIANQIA, CN) observed 0300 UTC 18 August 2019
Temperature: 32.0°C (90°F)
Dewpoint: 25.0°C (77°F) [RH = 67%]
Pressure (altimeter): 29.70 inches Hg (1006.0 mb)
Winds: from the N (10 degrees) at 7 MPH (6 knots; 3.1 m/s)
Visibility: 2.49 miles (4.01 km)
Ceiling: at least 12,000 feet AGL
Clouds: scattered clouds at 1700 feet AGL
Weather: HZ  (haze)

METAR text: ZSHC 180230Z VRB01MPS 4000 HZ SCT017 32/25 Q1007 NOSIG
Conditions at: ZSHC (HANGZHOU/JIANQIA, CN) observed 0230 UTC 18 August 2019
Temperature: 32.0°C (90°F)
Dewpoint: 25.0°C (77°F) [RH = 67%]
Pressure (altimeter): 29.73 inches Hg (1007.0 mb)
Winds: variable direction winds at 2 MPH (2 knots; 1.0 m/s)
Visibility: 2.49 miles (4.01 km)
Ceiling: at least 12,000 feet AGL
Clouds: scattered clouds at 1700 feet AGL
Weather: HZ  (haze)

METAR text: ZSHC 180200Z VRB03MPS 4000 HZ SCT017 31/25 Q1007 NOSIG
Conditions at: ZSHC (HANGZHOU/JIANQIA, CN) observed 0200 UTC 18 August 2019
Temperature: 31.0°C (88°F)
Dewpoint: 25.0°C (77°F) [RH = 71%]
Pressure (altimeter): 29.73 inches Hg (1007.0 mb)
Winds: variable direction winds at 7 MPH (6 knots; 3.1 m/s)
Visibility: 2.49 miles (4.01 km)
Ceiling: at least 12,000 feet AGL
Clouds: scattered clouds at 1700 feet AGL
Weather: HZ  (haze)

METAR text: ZSHC 180130Z 03002MPS 310V090 4000 BR SCT017 31/26 Q1007 NOSIG
Conditions at: ZSHC (HANGZHOU/JIANQIA, CN) observed 0130 UTC 18 August 2019
Temperature: 31.0°C (88°F)
Dewpoint: 26.0°C (79°F) [RH = 75%]
Pressure (altimeter): 29.73 inches Hg (1007.0 mb)
Winds: from the NNE (30 degrees) at 5 MPH (4 knots; 2.1 m/s)
Visibility: 2.49 miles (4.01 km)
Ceiling: at least 12,000 feet AGL
Clouds: scattered clouds at 1700 feet AGL
Weather: BR  (mist)

METAR text: ZSHC 180100Z 02003MPS 340V050 4000 BR SCT017 30/26 Q1007 NOSIG
Conditions at: ZSHC (HANGZHOU/JIANQIA, CN) observed 0100 UTC 18 August 2019
Temperature: 30.0°C (86°F)
Dewpoint: 26.0°C (79°F) [RH = 79%]
Pressure (altimeter): 29.73 inches Hg (1007.0 mb)
Winds: from the NNE (20 degrees) at 7 MPH (6 knots; 3.1 m/s)
Visibility: 2.49 miles (4.01 km)
Ceiling: at least 12,000 feet AGL
Clouds: scattered clouds at 1700 feet AGL
Weather: BR  (mist)

METAR text: ZSHC 180030Z 02003MPS 330V050 5000 BR SCT012 29/26 Q1006 NOSIG
Conditions at: ZSHC (HANGZHOU/JIANQIA, CN) observed 0030 UTC 18 August 2019
Temperature: 29.0°C (84°F)
Dewpoint: 26.0°C (79°F) [RH = 84%]
Pressure (altimeter): 29.70 inches Hg (1006.0 mb)
Winds: from the NNE (20 degrees) at 7 MPH (6 knots; 3.1 m/s)
Visibility: 3 miles ( 5 km)
Ceiling: at least 12,000 feet AGL
Clouds: scattered clouds at 1200 feet AGL
Weather: BR  (mist)

METAR text: ZSHC 180000Z 01002MPS 320V060 5000 BR SCT012 29/26 Q1006 NOSIG
Conditions at: ZSHC (HANGZHOU/JIANQIA, CN) observed 0000 UTC 18 August 2019
Temperature: 29.0°C (84°F)
Dewpoint: 26.0°C (79°F) [RH = 84%]
Pressure (altimeter): 29.70 inches Hg (1006.0 mb)
Winds: from the N (10 degrees) at 5 MPH (4 knots; 2.1 m/s)
Visibility: 3 miles ( 5 km)
Ceiling: at least 12,000 feet AGL
Clouds: scattered clouds at 1200 feet AGL
Weather: BR  (mist)

METAR text: ZSHC 172330Z 36003MPS 320V050 5000 BR SCT012 29/26 Q1006 NOSIG
Conditions at: ZSHC (HANGZHOU/JIANQIA, CN) observed 2330 UTC 17 August 2019
Temperature: 29.0°C (84°F)
Dewpoint: 26.0°C (79°F) [RH = 84%]
Pressure (altimeter): 29.70 inches Hg (1006.0 mb)
Winds: from the N (360 degrees) at 7 MPH (6 knots; 3.1 m/s)
Visibility: 3 miles ( 5 km)
Ceiling: at least 12,000 feet AGL
Clouds: scattered clouds at 1200 feet AGL
Weather: BR  (mist)

METAR text: ZSHC 172300Z 01003MPS 330V050 5000 BR NSC 28/26 Q1006 NOSIG
Conditions at: ZSHC (HANGZHOU/JIANQIA, CN) observed 2300 UTC 17 August 2019
Temperature: 28.0°C (82°F)
Dewpoint: 26.0°C (79°F) [RH = 89%]
Pressure (altimeter): 29.70 inches Hg (1006.0 mb)
Winds: from the N (10 degrees) at 7 MPH (6 knots; 3.1 m/s)
Visibility: 3 miles ( 5 km)
Ceiling: at least 12,000 feet AGL
Clouds: sky clear below 12,000 feet AGL
Weather: BR  (mist)

METAR text: ZSHC 172230Z 36002MPS 310V060 5000 BR NSC 28/25 Q1005 NOSIG
Conditions at: ZSHC (HANGZHOU/JIANQIA, CN) observed 2230 UTC 17 August 2019
Temperature: 28.0°C (82°F)
Dewpoint: 25.0°C (77°F) [RH = 84%]
Pressure (altimeter): 29.68 inches Hg (1005.0 mb)
Winds: from the N (360 degrees) at 5 MPH (4 knots; 2.1 m/s)
Visibility: 3 miles ( 5 km)
Ceiling: at least 12,000 feet AGL
Clouds: sky clear below 12,000 feet AGL
Weather: BR  (mist)

METAR text: ZSHC 172200Z 35002MPS 320V020 5000 BR NSC 28/25 Q1005 NOSIG
Conditions at: ZSHC (HANGZHOU/JIANQIA, CN) observed 2200 UTC 17 August 2019
Temperature: 28.0°C (82°F)
Dewpoint: 25.0°C (77°F) [RH = 84%]
Pressure (altimeter): 29.68 inches Hg (1005.0 mb)
Winds: from the N (350 degrees) at 5 MPH (4 knots; 2.1 m/s)
Visibility: 3 miles ( 5 km)
Ceiling: at least 12,000 feet AGL
Clouds: sky clear below 12,000 feet AGL
Weather: BR  (mist)

METAR text: ZSHC 172130Z 02002MPS 340V040 5000 BR NSC 28/24 Q1005 NOSIG
Conditions at: ZSHC (HANGZHOU/JIANQIA, CN) observed 2130 UTC 17 August 2019
Temperature: 28.0°C (82°F)
Dewpoint: 24.0°C (75°F) [RH = 79%]
Pressure (altimeter): 29.68 inches Hg (1005.0 mb)
Winds: from the NNE (20 degrees) at 5 MPH (4 knots; 2.1 m/s)
Visibility: 3 miles ( 5 km)
Ceiling: at least 12,000 feet AGL
Clouds: sky clear below 12,000 feet AGL
Weather: BR  (mist)

METAR text: ZSHC 172100Z 01003MPS 6000 NSC 28/24 Q1005 NOSIG
Conditions at: ZSHC (HANGZHOU/JIANQIA, CN) observed 2100 UTC 17 August 2019
Temperature: 28.0°C (82°F)
Dewpoint: 24.0°C (75°F) [RH = 79%]
Pressure (altimeter): 29.68 inches Hg (1005.0 mb)
Winds: from the N (10 degrees) at 7 MPH (6 knots; 3.1 m/s)
Visibility: 4 miles ( 6 km)
Ceiling: at least 12,000 feet AGL
Clouds: sky clear below 12,000 feet AGL
Weather: no significant weather observed at this time

METAR text: ZSHC 172030Z VRB01MPS CAVOK 28/23 Q1004 NOSIG
Conditions at: ZSHC (HANGZHOU/JIANQIA, CN) observed 2030 UTC 17 August 2019
Temperature: 28.0°C (82°F)
Dewpoint: 23.0°C (73°F) [RH = 74%]
Pressure (altimeter): 29.65 inches Hg (1004.0 mb)
Winds: variable direction winds at 2 MPH (2 knots; 1.0 m/s)
Visibility: 6 or more miles (10+ km)
Ceiling: ceiling and visibility are OK
Clouds: unknown
Weather: no significant weather observed at this time

METAR text: ZSHC 172000Z 26002MPS CAVOK 27/22 Q1004 NOSIG
Conditions at: ZSHC (HANGZHOU/JIANQIA, CN) observed 2000 UTC 17 August 2019
Temperature: 27.0°C (81°F)
Dewpoint: 22.0°C (72°F) [RH = 74%]
Pressure (altimeter): 29.65 inches Hg (1004.0 mb)
Winds: from the W (260 degrees) at 5 MPH (4 knots; 2.1 m/s)
Visibility: 6 or more miles (10+ km)
Ceiling: ceiling and visibility are OK
Clouds: unknown
Weather: no significant weather observed at this time

METAR text: ZSHC 171930Z 26002MPS 210V270 CAVOK 28/23 Q1004 NOSIG
Conditions at: ZSHC (HANGZHOU/JIANQIA, CN) observed 1930 UTC 17 August 2019
Temperature: 28.0°C (82°F)
Dewpoint: 23.0°C (73°F) [RH = 74%]
Pressure (altimeter): 29.65 inches Hg (1004.0 mb)
Winds: from the W (260 degrees) at 5 MPH (4 knots; 2.1 m/s)
Visibility: 6 or more miles (10+ km)
Ceiling: ceiling and visibility are OK
Clouds: unknown
Weather: no significant weather observed at this time

METAR text: ZSHC 171900Z 25002MPS CAVOK 27/23 Q1004 NOSIG
Conditions at: ZSHC (HANGZHOU/JIANQIA, CN) observed 1900 UTC 17 August 2019
Temperature: 27.0°C (81°F)
Dewpoint: 23.0°C (73°F) [RH = 79%]
Pressure (altimeter): 29.65 inches Hg (1004.0 mb)
Winds: from the WSW (250 degrees) at 5 MPH (4 knots; 2.1 m/s)
Visibility: 6 or more miles (10+ km)
Ceiling: ceiling and visibility are OK
Clouds: unknown
Weather: no significant weather observed at this time

METAR text: ZSHC 171830Z 26002MPS CAVOK 27/23 Q1004 NOSIG
Conditions at: ZSHC (HANGZHOU/JIANQIA, CN) observed 1830 UTC 17 August 2019
Temperature: 27.0°C (81°F)
Dewpoint: 23.0°C (73°F) [RH = 79%]
Pressure (altimeter): 29.65 inches Hg (1004.0 mb)
Winds: from the W (260 degrees) at 5 MPH (4 knots; 2.1 m/s)
Visibility: 6 or more miles (10+ km)
Ceiling: ceiling and visibility are OK
Clouds: unknown
Weather: no significant weather observed at this time

METAR text: ZSHC 171800Z 24001MPS CAVOK 28/22 Q1003 NOSIG
Conditions at: ZSHC (HANGZHOU/JIANQIA, CN) observed 1800 UTC 17 August 2019
Temperature: 28.0°C (82°F)
Dewpoint: 22.0°C (72°F) [RH = 70%]
Pressure (altimeter): 29.62 inches Hg (1003.0 mb)
Winds: from the WSW (240 degrees) at 2 MPH (2 knots; 1.0 m/s)
Visibility: 6 or more miles (10+ km)
Ceiling: ceiling and visibility are OK
Clouds: unknown
Weather: no significant weather observed at this time

METAR text: ZSHC 171730Z 27002MPS CAVOK 28/22 Q1004 NOSIG
Conditions at: ZSHC (HANGZHOU/JIANQIA, CN) observed 1730 UTC 17 August 2019
Temperature: 28.0°C (82°F)
Dewpoint: 22.0°C (72°F) [RH = 70%]
Pressure (altimeter): 29.65 inches Hg (1004.0 mb)
Winds: from the W (270 degrees) at 5 MPH (4 knots; 2.1 m/s)
Visibility: 6 or more miles (10+ km)
Ceiling: ceiling and visibility are OK
Clouds: unknown
Weather: no significant weather observed at this time

METAR text: ZSHC 171700Z 00000MPS CAVOK 29/22 Q1004 NOSIG
Conditions at: ZSHC (HANGZHOU/JIANQIA, CN) observed 1700 UTC 17 August 2019
Temperature: 29.0°C (84°F)
Dewpoint: 22.0°C (72°F) [RH = 66%]
Pressure (altimeter): 29.65 inches Hg (1004.0 mb)
Winds: calm
Visibility: 6 or more miles (10+ km)
Ceiling: ceiling and visibility are OK
Clouds: unknown
Weather: no significant weather observed at this time

METAR text: ZSHC 171630Z 18002MPS 130V220 CAVOK 29/22 Q1004 NOSIG
Conditions at: ZSHC (HANGZHOU/JIANQIA, CN) observed 1630 UTC 17 August 2019
Temperature: 29.0°C (84°F)
Dewpoint: 22.0°C (72°F) [RH = 66%]
Pressure (altimeter): 29.65 inches Hg (1004.0 mb)
Winds: from the S (180 degrees) at 5 MPH (4 knots; 2.1 m/s)
Visibility: 6 or more miles (10+ km)
Ceiling: ceiling and visibility are OK
Clouds: unknown
Weather: no significant weather observed at this time

METAR text: ZSHC 171600Z 26003MPS CAVOK 29/22 Q1004 NOSIG
Conditions at: ZSHC (HANGZHOU/JIANQIA, CN) observed 1600 UTC 17 August 2019
Temperature: 29.0°C (84°F)
Dewpoint: 22.0°C (72°F) [RH = 66%]
Pressure (altimeter): 29.65 inches Hg (1004.0 mb)
Winds: from the W (260 degrees) at 7 MPH (6 knots; 3.1 m/s)
Visibility: 6 or more miles (10+ km)
Ceiling: ceiling and visibility are OK
Clouds: unknown
Weather: no significant weather observed at this time

METAR text: ZSHC 171530Z 25002MPS CAVOK 30/21 Q1004 NOSIG
Conditions at: ZSHC (HANGZHOU/JIANQIA, CN) observed 1530 UTC 17 August 2019
Temperature: 30.0°C (86°F)
Dewpoint: 21.0°C (70°F) [RH = 59%]
Pressure (altimeter): 29.65 inches Hg (1004.0 mb)
Winds: from the WSW (250 degrees) at 5 MPH (4 knots; 2.1 m/s)
Visibility: 6 or more miles (10+ km)
Ceiling: ceiling and visibility are OK
Clouds: unknown
Weather: no significant weather observed at this time

METAR text: ZSHC 171500Z 24002MPS CAVOK 29/22 Q1004 NOSIG
Conditions at: ZSHC (HANGZHOU/JIANQIA, CN) observed 1500 UTC 17 August 2019
Temperature: 29.0°C (84°F)
Dewpoint: 22.0°C (72°F) [RH = 66%]
Pressure (altimeter): 29.65 inches Hg (1004.0 mb)
Winds: from the WSW (240 degrees) at 5 MPH (4 knots; 2.1 m/s)
Visibility: 6 or more miles (10+ km)
Ceiling: ceiling and visibility are OK
Clouds: unknown
Weather: no significant weather observed at this time

METAR text: ZSHC 171430Z 25001MPS CAVOK 30/22 Q1004 NOSIG
Conditions at: ZSHC (HANGZHOU/JIANQIA, CN) observed 1430 UTC 17 August 2019
Temperature: 30.0°C (86°F)
Dewpoint: 22.0°C (72°F) [RH = 62%]
Pressure (altimeter): 29.65 inches Hg (1004.0 mb)
Winds: from the WSW (250 degrees) at 2 MPH (2 knots; 1.0 m/s)
Visibility: 6 or more miles (10+ km)
Ceiling: ceiling and visibility are OK
Clouds: unknown
Weather: no significant weather observed at this time

METAR text: ZSHC 171400Z 20001MPS CAVOK 31/21 Q1004 NOSIG
Conditions at: ZSHC (HANGZHOU/JIANQIA, CN) observed 1400 UTC 17 August 2019
Temperature: 31.0°C (88°F)
Dewpoint: 21.0°C (70°F) [RH = 55%]
Pressure (altimeter): 29.65 inches Hg (1004.0 mb)
Winds: from the SSW (200 degrees) at 2 MPH (2 knots; 1.0 m/s)
Visibility: 6 or more miles (10+ km)
Ceiling: ceiling and visibility are OK
Clouds: unknown
Weather: no significant weather observed at this time

METAR text: ZSHC 171330Z 15002MPS CAVOK 32/19 Q1004 NOSIG
Conditions at: ZSHC (HANGZHOU/JIANQIA, CN) observed 1330 UTC 17 August 2019
Temperature: 32.0°C (90°F)
Dewpoint: 19.0°C (66°F) [RH = 46%]
Pressure (altimeter): 29.65 inches Hg (1004.0 mb)
Winds: from the SSE (150 degrees) at 5 MPH (4 knots; 2.1 m/s)
Visibility: 6 or more miles (10+ km)
Ceiling: ceiling and visibility are OK
Clouds: unknown
Weather: no significant weather observed at this time

METAR text: ZSHC 171300Z 13001MPS CAVOK 31/21 Q1004 NOSIG
Conditions at: ZSHC (HANGZHOU/JIANQIA, CN) observed 1300 UTC 17 August 2019
Temperature: 31.0°C (88°F)
Dewpoint: 21.0°C (70°F) [RH = 55%]
Pressure (altimeter): 29.65 inches Hg (1004.0 mb)
Winds: from the SE (130 degrees) at 2 MPH (2 knots; 1.0 m/s)
Visibility: 6 or more miles (10+ km)
Ceiling: ceiling and visibility are OK
Clouds: unknown
Weather: no significant weather observed at this time

Forecast for: ZSHC (HANGZHOU/JIANQIA, CN)
Text: TAF ZSHC 181903Z 1900/1924 09003MPS 3000 BR SCT025 TX34/1906Z TN25/1921Z
Forecast period: 0000 UTC 19 August 2019 to 0000 UTC 20 August 2019
Forecast type: FROM: standard forecast or significant change
Winds: from the E (90 degrees) at 7 MPH (6 knots; 3.1 m/s)
Visibility: 1.86 miles (2.99 km)
Ceiling: at least 12,000 feet AGL
Clouds: scattered clouds at 2500 feet AGL
Weather: BR  (mist)